Startpagina
METAR-TAF:

METAR-TAF

Vliegvelden :

Rivas, Nicaragua

breedte: 11-25N, lengte: 085-50W, hoogte: 53 m

Actueel weer

Dit bericht is 10 uur en het 25 minuten geleden gemaakt, om 23:00 UTC
Wind 4 kt uit het noordnoordoosten
Temperatuur 26°C
Vochtigheid 79%
Druk 1011 hPa
Zicht 10 km of meer
Weinig wolken op 1200 ft, Cumulonimbus.
Verspreide wolken op 7000 ft

METAR: MNRS 202300Z 02004KT 9999 FEW012CB SCT070 26/22 Q1011 CB/N/NE/E/SE/S

Tijdstip: 03:25 (09:25 UTC)


TAF: ontbreekt

Waarnemingen en weersverwachtingen van meer dan 4000 vliegvelden (METAR en TAF).

De beschikbare stations zijn de gele en rode punten op de kaart.

Ga met uw muis naar het station om de naam te zien.

Klik dan om waarnemingen en weersverwachtingen te zien.

kaart wijzigen: klik op de groene knoppen met een zwart kruis om in te zoomen, op de groene knop met een streepje om uit te zoomen of op de groene pijlen voor aangrenzende kaarten.


METAR-TAF: